Time;durP1;ratioP1;P1;durP2;ratioP2;P2;SDS_P1;SDS_P2;PMS_P1;PMS_P2;Temp;Humidity;BMP_temperature;BMP_pressure;BME280_temperature;BME280_humidity;BME280_pressure;Samples;Min_cycle;Max_cycle;Signal;HPM_P1;HPM_P2
2022/05/15 13:22:31;;;;;;;;;0.00;0.00;;;;;36.73;23.29;100597.84;5097171;27;1352908;-88
2022/05/15 13:25:04;;;;;;;;;4.00;4.00;;;;;36.93;23.51;100641.91;5128959;27;45106;-88
2022/05/15 13:27:33;;;;;;;;;3.25;3.25;;;;;36.43;23.71;100627.47;5128343;27;45182;-88
2022/05/15 13:29:59;;;;;;;;;3.00;2.75;;;;;35.67;25.07;100624.88;5129108;27;45361;-89
2022/05/15 13:32:25;;;;;;;;;3.50;3.50;;;;;36.22;24.57;100582.53;5128244;27;45609;-89
2022/05/15 13:34:51;;;;;;;;;1.25;1.25;;;;;39.00;23.33;100622.28;5128753;27;44973;-89
2022/05/15 13:37:31;;;;;;;;;3.00;3.00;;;;;41.52;21.00;100633.19;5128090;27;45095;-90
2022/05/15 13:45:33;;;;;;;;;3.25;2.75;;;;;46.55;18.31;100603.47;5147860;27;45211;-87
2022/05/15 13:48:01;;;;;;;;;5.00;5.00;;;;;47.71;17.07;100602.25;5128913;27;45077;-87
2022/05/15 13:50:32;;;;;;;;;2.25;2.25;;;;;48.13;16.56;100570.88;5130625;27;44928;-86
2022/05/15 13:53:17;;;;;;;;;4.00;4.00;;;;;48.16;15.80;100586.34;5148098;27;45913;-87
2022/05/15 13:55:42;;;;;;;;;3.00;3.00;;;;;47.68;16.37;100616.56;5148566;27;45319;-86
2022/05/15 13:58:08;;;;;;;;;2.00;2.00;;;;;47.31;16.41;100616.41;5129350;27;45173;-86
2022/05/15 14:00:34;;;;;;;;;2.00;2.00;;;;;46.60;16.75;100578.72;5112005;27;45024;-82
2022/05/15 14:03:05;;;;;;;;;3.25;3.00;;;;;47.11;17.18;100598.50;5128937;27;46071;-85
2022/05/15 14:05:34;;;;;;;;;3.25;3.25;;;;;48.20;15.46;100576.53;5110482;27;45654;-86
2022/05/15 14:08:12;;;;;;;;;2.50;2.50;;;;;49.26;15.11;100585.97;5128368;27;45786;-87
2022/05/15 14:10:38;;;;;;;;;5.00;4.00;;;;;49.82;14.68;100589.59;5104047;27;45509;-86
2022/05/15 14:13:05;;;;;;;;;5.25;5.25;;;;;50.39;13.48;100569.81;5107141;27;45505;-87
2022/05/15 14:15:50;;;;;;;;;6.50;6.00;;;;;49.60;13.68;100534.84;5088141;27;45992;-85
2022/05/15 14:18:35;;;;;;;;;3.50;3.00;;;;;48.03;14.51;100573.09;5106631;27;45473;-87
2022/05/15 14:21:11;;;;;;;;;3.00;3.00;;;;;45.88;15.27;100565.09;5107125;27;45427;-84
2022/05/15 14:23:38;;;;;;;;;2.75;2.75;;;;;43.90;16.10;100485.97;5106777;27;46500;-86
2022/05/15 14:26:04;;;;;;;;;3.50;3.00;;;;;43.36;16.39;100547.13;5105635;27;45409;-86
2022/05/15 14:28:30;;;;;;;;;2.00;2.00;;;;;42.64;17.27;100540.84;5107418;27;45671;-86
2022/05/15 14:30:55;;;;;;;;;2.50;2.50;;;;;41.99;17.83;100513.41;5107697;27;45421;-86
2022/05/15 14:33:24;;;;;;;;;2.00;2.00;;;;;42.19;18.05;100503.13;5095349;27;45852;-86
2022/05/15 14:36:00;;;;;;;;;3.00;3.00;;;;;44.01;17.58;100522.50;5075461;27;45682;-87
2022/05/15 14:38:25;;;;;;;;;4.00;3.00;;;;;45.16;16.60;100519.81;5092846;27;45278;-85
2022/05/15 14:40:51;;;;;;;;;3.00;3.00;;;;;46.08;15.73;100531.28;5092864;27;45603;-87
2022/05/15 14:43:16;;;;;;;;;2.25;2.25;;;;;46.06;15.28;100525.88;5074273;27;47940;-86
2022/05/15 14:45:47;;;;;;;;;3.00;3.00;;;;;45.72;15.56;100521.56;5074495;27;45469;-85
2022/05/15 14:48:17;;;;;;;;;2.00;2.00;;;;;45.70;16.17;100489.44;5099803;27;45417;-85
2022/05/15 14:50:44;;;;;;;;;2.50;2.50;;;;;46.97;16.13;100500.00;5093192;27;45436;-86
2022/05/15 14:53:12;;;;;;;;;3.00;2.50;;;;;48.09;15.15;100472.00;5074640;27;47063;-86
2022/05/15 14:58:23;;;;;;;;;2.25;2.25;;;;;48.46;14.36;100490.38;5092494;27;45354;-86
2022/05/15 15:00:48;;;;;;;;;4.00;4.00;;;;;47.62;14.44;100478.03;5092312;27;45854;-84
2022/05/15 15:03:13;;;;;;;;;3.00;3.00;;;;;47.54;15.08;100499.38;5092404;27;46341;-86
2022/05/15 15:05:45;;;;;;;;;2.50;2.25;;;;;47.09;14.55;100474.47;5075138;27;45710;-88
2022/05/15 15:08:22;;;;;;;;;2.00;2.00;;;;;46.14;14.84;100505.53;5092826;27;45686;-85
2022/05/15 15:10:48;;;;;;;;;2.25;2.25;;;;;44.27;15.90;100406.00;5081282;27;45513;-85
2022/05/15 15:13:15;;;;;;;;;1.75;1.75;;;;;43.33;15.56;100481.00;5112844;27;46083;-83
2022/05/15 15:15:43;;;;;;;;;2.25;1.75;;;;;41.94;16.67;100455.03;5111520;27;45700;-83
2022/05/15 15:18:09;;;;;;;;;2.00;2.00;;;;;41.08;17.12;100464.59;5112959;27;45418;-84
2022/05/15 15:20:37;;;;;;;;;2.00;2.00;;;;;40.10;17.88;100451.94;5108880;27;45476;-83
2022/05/15 15:23:03;;;;;;;;;3.00;3.00;;;;;39.34;18.53;100471.72;5119169;27;46201;-83
2022/05/15 15:25:28;;;;;;;;;3.00;3.00;;;;;38.40;18.78;100459.84;5090964;27;45276;-83
2022/05/15 15:27:54;;;;;;;;;2.25;2.25;;;;;37.74;19.35;100461.81;5094989;27;45752;-84
2022/05/15 15:30:20;;;;;;;;;2.00;2.00;;;;;37.22;20.08;100471.56;5111695;27;45415;-83
2022/05/15 15:32:45;;;;;;;;;3.75;2.75;;;;;36.45;21.61;100426.59;5093914;27;47056;-83
2022/05/15 15:35:11;;;;;;;;;1.50;1.50;;;;;36.13;21.19;100428.09;5120936;27;45991;-85
2022/05/15 15:40:21;;;;;;;;;2.25;2.00;;;;;35.18;21.65;100439.78;5099897;27;45847;-86
2022/05/15 15:42:46;;;;;;;;;2.00;2.00;;;;;34.65;22.65;100428.09;5111938;27;46594;-85
2022/05/15 15:45:12;;;;;;;;;2.00;2.00;;;;;34.34;23.19;100438.41;5111874;27;45362;-84
2022/05/15 15:47:38;;;;;;;;;2.00;2.00;;;;;33.51;23.36;100368.66;5112426;27;45110;-86
2022/05/15 15:50:05;;;;;;;;;2.00;2.00;;;;;33.51;23.21;100414.97;5113780;27;45222;-85
2022/05/15 15:52:31;;;;;;;;;2.00;2.00;;;;;33.01;23.44;100391.88;5112880;27;45460;-86
2022/05/15 15:54:57;;;;;;;;;2.00;2.00;;;;;32.64;24.42;100368.81;5113088;27;45047;-85
2022/05/15 15:57:22;;;;;;;;;1.00;1.00;;;;;32.08;24.54;100322.41;5095832;27;45247;-85
2022/05/15 15:59:47;;;;;;;;;2.00;2.00;;;;;32.15;25.46;100380.00;5133657;27;45003;-86
2022/05/15 16:02:13;;;;;;;;;2.00;2.00;;;;;31.78;25.52;100353.16;5114145;27;46350;-86
2022/05/15 16:04:39;;;;;;;;;2.50;2.50;;;;;31.90;25.04;100418.66;5133600;27;44979;-84
2022/05/15 16:07:05;;;;;;;;;4.25;4.00;;;;;31.59;25.01;100395.97;5133947;27;45397;-82
2022/05/15 16:09:31;;;;;;;;;1.50;1.50;;;;;31.59;25.19;100443.03;5132672;27;45266;-86
2022/05/15 16:11:57;;;;;;;;;2.75;2.25;;;;;30.83;26.47;100345.03;5117073;27;45318;-87
2022/05/15 16:14:23;;;;;;;;;2.00;2.00;;;;;30.75;25.95;100357.28;5111051;27;44931;-86
2022/05/15 16:16:49;;;;;;;;;3.00;2.50;;;;;30.81;26.70;100393.09;5112271;27;44982;-85
2022/05/15 16:19:15;;;;;;;;;2.00;2.00;;;;;30.79;26.72;100405.88;5111523;27;45430;-84
2022/05/15 16:21:46;;;;;;;;;2.75;2.75;;;;;30.59;26.88;100378.91;5111474;27;45297;-85
2022/05/15 16:24:21;;;;;;;;;1.50;1.50;;;;;30.71;27.43;100409.97;5112315;27;45195;-86
2022/05/15 16:26:48;;;;;;;;;3.00;3.00;;;;;30.70;27.10;100422.66;5121305;27;45379;-86
2022/05/15 16:29:14;;;;;;;;;3.00;2.00;;;;;30.57;27.89;100416.09;5111981;27;44981;-83
2022/05/15 16:31:42;;;;;;;;;2.25;2.25;;;;;30.18;27.89;100362.13;5112123;27;45623;-85
2022/05/15 16:34:07;;;;;;;;;3.75;3.75;;;;;30.36;27.55;100409.09;5111690;27;45189;-83
2022/05/15 16:36:32;;;;;;;;;2.50;2.50;;;;;30.22;27.64;100402.56;5111702;27;45457;-84
2022/05/15 16:38:58;;;;;;;;;2.75;2.75;;;;;29.81;28.06;100356.78;5092912;27;45632;-83
2022/05/15 16:41:23;;;;;;;;;3.25;2.75;;;;;29.96;28.22;100400.31;5109694;27;45231;-82
2022/05/15 16:43:51;;;;;;;;;2.00;2.00;;;;;29.65;28.66;100355.78;5091216;27;45419;-83
2022/05/15 16:46:16;;;;;;;;;1.75;1.75;;;;;29.47;28.42;100335.03;5100243;27;45525;-85
2022/05/15 16:48:42;;;;;;;;;2.75;2.50;;;;;29.52;28.40;100355.50;5131616;27;45236;-87
2022/05/15 16:51:07;;;;;;;;;1.75;1.00;;;;;29.77;28.72;100400.38;5131316;27;45974;-87
2022/05/15 16:53:35;;;;;;;;;3.00;3.00;;;;;29.58;29.52;100370.59;5130976;27;45221;-86
2022/05/15 16:56:02;;;;;;;;;2.75;2.75;;;;;29.24;28.67;100318.09;5131795;27;45035;-87
2022/05/15 16:58:28;;;;;;;;;3.25;3.25;;;;;29.33;29.87;100345.69;5121209;27;45063;-85
2022/05/15 17:00:53;;;;;;;;;3.00;3.00;;;;;29.47;29.72;100379.25;5126901;27;45175;-87
2022/05/15 17:03:19;;;;;;;;;3.75;3.00;;;;;28.97;29.87;100303.22;5130930;27;45109;-86
2022/05/15 17:05:45;;;;;;;;;5.00;4.50;;;;;29.28;29.99;100368.44;5133254;27;45128;-87
2022/05/15 17:08:11;;;;;;;;;3.00;3.00;;;;;29.07;30.21;100337.00;5132192;27;45228;-86
2022/05/15 17:10:37;;;;;;;;;4.00;3.00;;;;;29.24;30.42;100379.47;5132343;27;45210;-86
2022/05/15 17:13:03;;;;;;;;;4.00;4.00;;;;;28.82;30.05;100314.72;5132850;27;45320;-86
2022/05/15 17:15:31;;;;;;;;;2.25;2.00;;;;;28.67;30.32;100294.69;5113911;27;44926;-88
2022/05/15 17:17:57;;;;;;;;;3.75;3.00;;;;;28.60;30.31;100290.53;5132927;27;45300;-87
2022/05/15 17:20:23;;;;;;;;;3.00;3.00;;;;;29.00;30.65;100374.28;5113014;27;47641;-88
2022/05/15 17:22:48;;;;;;;;;3.25;3.00;;;;;28.75;30.26;100347.47;5113973;27;45149;-86
2022/05/15 17:25:14;;;;;;;;;3.75;3.25;;;;;28.55;30.97;100317.78;5114625;27;45344;-85
2022/05/15 17:27:40;;;;;;;;;3.00;3.00;;;;;28.47;30.49;100309.16;5131055;27;45275;-85
2022/05/15 17:35:34;;;;;;;;;3.00;3.00;;;;;28.28;30.56;100333.44;5122710;27;45076;-86
2022/05/15 17:38:00;;;;;;;;;3.00;3.00;;;;;28.11;30.68;100334.19;5132887;27;45007;-86
2022/05/15 17:40:28;;;;;;;;;4.00;4.00;;;;;27.99;30.64;100348.25;5114122;27;47296;-84
2022/05/15 17:42:56;;;;;;;;;3.75;3.75;;;;;27.99;30.97;100353.66;5132773;27;45224;-86
2022/05/15 17:45:23;;;;;;;;;3.50;3.50;;;;;28.17;31.30;100389.78;5132461;27;45130;-88
2022/05/15 17:47:49;;;;;;;;;4.50;4.00;;;;;28.10;31.11;100369.38;5114251;27;45045;-84
2022/05/15 17:50:18;;;;;;;;;4.00;4.00;;;;;28.22;31.16;100393.16;5114330;27;48010;-87
2022/05/15 17:52:43;;;;;;;;;3.75;3.75;;;;;27.67;31.67;100317.16;5113554;27;45146;-87
2022/05/15 17:55:10;;;;;;;;;4.00;4.00;;;;;27.90;31.32;100363.00;5133295;27;44968;-87
2022/05/15 17:57:37;;;;;;;;;3.25;3.25;;;;;27.75;31.97;100342.06;5109737;27;45942;-87
2022/05/15 18:00:05;;;;;;;;;3.00;3.00;;;;;27.70;32.01;100341.34;5132645;27;45595;-86
2022/05/15 18:02:31;;;;;;;;;4.50;4.00;;;;;27.74;32.64;100368.19;5113615;27;45120;-88
2022/05/15 18:04:58;;;;;;;;;5.00;5.00;;;;;27.55;32.33;100342.00;5132950;27;45091;-86
2022/05/15 18:07:23;;;;;;;;;4.25;4.00;;;;;27.35;32.33;100322.13;5114675;27;45238;-82
2022/05/15 18:09:48;;;;;;;;;5.00;4.50;;;;;27.68;32.41;100399.94;5135035;27;45394;-87
2022/05/15 18:12:16;;;;;;;;;7.00;6.00;;;;;27.47;32.39;100389.06;5115604;27;45080;-87
2022/05/15 18:14:42;;;;;;;;;4.25;4.00;;;;;27.53;32.76;100437.41;5135335;27;45099;-86
2022/05/15 18:17:08;;;;;;;;;3.75;2.75;;;;;27.40;32.65;100446.97;5136238;27;45306;-87
2022/05/15 18:19:34;;;;;;;;;5.00;5.00;;;;;27.62;33.76;100497.41;5117984;27;47546;-88
2022/05/15 18:22:01;;;;;;;;;6.75;6.75;;;;;27.12;34.56;100457.94;5117667;27;45619;-87
2022/05/15 18:24:26;;;;;;;;;7.25;6.50;;;;;27.19;36.18;100531.44;5117492;27;45434;-87
2022/05/15 18:26:52;;;;;;;;;6.25;5.50;;;;;26.84;37.42;100517.41;5133199;27;45258;-85
2022/05/15 18:29:17;;;;;;;;;7.50;7.50;;;;;26.83;38.80;100549.81;5114539;27;45883;-86
2022/05/15 18:31:43;;;;;;;;;7.00;6.00;;;;;26.72;39.32;100588.84;5096932;27;45389;-88
2022/05/15 18:34:10;;;;;;;;;7.00;6.25;;;;;26.32;39.71;100581.19;5106848;27;45380;-86
2022/05/15 18:36:37;;;;;;;;;5.50;5.00;;;;;25.82;41.05;100534.34;5105803;27;45334;-91
2022/05/15 18:39:03;;;;;;;;;5.25;5.25;;;;;25.82;42.22;100580.13;5095731;27;48204;-89
2022/05/15 18:41:39;;;;;;;;;8.25;6.25;;;;;25.37;42.54;100545.53;5114099;27;46128;-88
2022/05/15 18:44:05;;;;;;;;;6.00;5.75;;;;;25.27;42.14;100560.19;5114243;27;45373;-89
2022/05/15 18:46:31;;;;;;;;;6.00;6.00;;;;;25.43;43.33;100618.03;5095038;27;45725;-88
2022/05/15 18:48:57;;;;;;;;;6.25;6.25;;;;;25.24;43.93;100597.94;5114423;27;46039;-88
2022/05/15 18:56:51;;;;;;;;;5.25;5.25;;;;;24.94;46.70;100568.25;5092462;27;45555;-89
2022/05/15 18:59:16;;;;;;;;;7.00;7.00;;;;;24.66;47.41;100536.72;5092051;27;46616;-88
2022/05/15 19:01:41;;;;;;;;;6.00;6.00;;;;;24.80;47.91;100570.44;5092432;27;45519;-89
2022/05/15 19:04:07;;;;;;;;;6.50;6.00;;;;;24.97;47.88;100608.50;5092906;27;45580;-89
2022/05/15 19:06:32;;;;;;;;;6.75;6.75;;;;;24.71;48.49;100602.00;5092534;27;45646;-89
2022/05/15 19:08:58;;;;;;;;;7.00;6.00;;;;;24.16;49.79;100540.69;5091497;27;45569;-81
2022/05/15 19:11:23;;;;;;;;;6.00;5.25;;;;;23.96;49.85;100526.88;5091877;27;45559;-82
2022/05/15 19:13:50;;;;;;;;;6.00;6.00;;;;;24.11;50.88;100583.78;5073104;27;45949;-83
2022/05/15 19:16:15;;;;;;;;;5.00;5.00;;;;;23.73;51.74;100520.22;5094087;27;45738;-83
2022/05/15 19:18:41;;;;;;;;;5.00;5.00;;;;;23.77;52.29;100553.25;5082198;27;45830;-82
2022/05/15 19:21:06;;;;;;;;;5.00;4.50;;;;;23.96;51.69;100569.81;5114373;27;45778;-83
2022/05/15 19:23:32;;;;;;;;;5.00;4.50;;;;;24.06;52.27;100577.63;5111845;27;45181;-83
2022/05/15 19:25:57;;;;;;;;;5.25;5.25;;;;;23.70;52.28;100512.28;5107174;27;45667;-81
2022/05/15 19:28:24;;;;;;;;;7.00;6.50;;;;;23.63;52.14;100484.66;5100387;27;45757;-82
2022/05/15 19:30:51;;;;;;;;;4.00;4.00;;;;;23.58;52.07;100478.50;5106727;27;46094;-82
2022/05/15 19:33:16;;;;;;;;;3.50;3.00;;;;;23.57;51.93;100484.78;5113326;27;46480;-82
2022/05/15 19:35:42;;;;;;;;;3.50;3.50;;;;;23.09;51.01;100438.50;5098908;27;44965;-82
2022/05/15 19:38:07;;;;;;;;;5.50;3.00;;;;;23.29;51.54;100518.50;5114963;27;45281;-81
2022/05/15 19:40:33;;;;;;;;;5.50;4.50;;;;;23.24;52.57;100541.84;5112163;27;45675;-81
2022/05/15 19:42:58;;;;;;;;;2.00;2.00;;;;;23.11;51.49;100544.78;5119910;27;45362;-81
2022/05/15 19:45:24;;;;;;;;;2.50;2.50;;;;;22.83;51.49;100522.09;5108069;27;45244;-82
2022/05/15 19:47:49;;;;;;;;;4.00;4.00;;;;;22.87;52.23;100564.88;5119264;27;45281;-81
2022/05/15 19:50:16;;;;;;;;;5.75;4.50;;;;;23.05;52.84;100611.03;5114804;27;45424;-81
2022/05/15 19:52:41;;;;;;;;;4.00;4.00;;;;;22.80;53.39;100584.66;5100988;27;46030;-81
2022/05/15 19:55:08;;;;;;;;;3.75;3.75;;;;;22.88;53.48;100630.09;5111089;27;45553;-81
2022/05/15 19:57:35;;;;;;;;;4.00;4.00;;;;;22.91;54.22;100662.25;5108246;27;46508;-81
2022/05/15 20:00:07;;;;;;;;;4.75;4.50;;;;;22.73;54.86;100654.47;5104178;27;45863;-82
2022/05/15 20:02:33;;;;;;;;;5.00;5.00;;;;;22.42;54.97;100624.63;5102276;27;45384;-81
2022/05/15 20:13:10;;;;;;;;;4.75;4.50;;;;;22.20;58.18;100656.19;5108014;27;45519;-81
2022/05/15 20:15:37;;;;;;;;;7.00;7.00;;;;;22.23;58.35;100659.72;5110180;27;45405;-81
2022/05/15 20:18:02;;;;;;;;;4.00;4.00;;;;;22.45;58.48;100689.72;5099522;27;45582;-81
2022/05/15 20:20:28;;;;;;;;;7.00;6.00;;;;;22.20;58.67;100627.63;5111567;27;45557;-82
2022/05/15 20:22:55;;;;;;;;;4.00;3.75;;;;;22.39;58.54;100665.72;5116222;27;45145;-82
2022/05/15 20:25:21;;;;;;;;;4.50;4.00;;;;;21.95;58.64;100596.75;5119836;27;45030;-81
2022/05/15 20:27:46;;;;;;;;;4.50;4.25;;;;;21.73;58.96;100594.38;5116392;27;45476;-82
2022/05/15 20:30:13;;;;;;;;;5.00;4.50;;;;;21.66;59.86;100607.84;5115161;27;45337;-81
2022/05/15 20:32:38;;;;;;;;;5.50;5.00;;;;;22.04;59.56;100683.13;5118813;27;45427;-82
2022/05/15 20:35:04;;;;;;;;;5.25;5.00;;;;;21.76;59.18;100649.63;5118759;27;45260;-82
2022/05/15 20:37:29;;;;;;;;;7.75;6.25;;;;;21.42;60.58;100614.38;5118463;27;45434;-81
2022/05/15 20:39:55;;;;;;;;;7.50;6.25;;;;;21.86;61.71;100707.44;5118881;27;45114;-82
2022/05/15 20:42:22;;;;;;;;;6.50;6.00;;;;;21.06;84.08;100636.13;5101446;27;45179;-82
2022/05/15 20:44:48;;;;;;;;;10.75;9.00;;;;;21.74;92.42;100770.03;5114177;27;45177;-82
2022/05/15 20:47:13;;;;;;;;;9.75;8.75;;;;;21.05;100.00;100690.47;5116845;27;45209;-81
2022/05/15 20:49:38;;;;;;;;;9.25;7.00;;;;;20.84;100.00;100682.66;5117003;27;45328;-81
2022/05/15 20:52:05;;;;;;;;;11.75;9.50;;;;;21.11;100.00;100722.47;5108694;27;45131;-81
2022/05/15 20:54:31;;;;;;;;;8.25;7.75;;;;;21.47;100.00;100719.50;5120639;27;45301;-81
2022/05/15 20:56:57;;;;;;;;;6.75;6.00;;;;;23.05;100.00;100686.09;5119496;27;45950;-81
2022/05/15 20:59:22;;;;;;;;;7.00;7.00;;;;;21.47;100.00;100709.69;5124602;27;45704;-81
2022/05/15 21:01:48;;;;;;;;;7.00;6.00;;;;;21.36;100.00;100676.84;5110459;27;45479;-81
2022/05/15 21:04:14;;;;;;;;;6.00;6.00;;;;;20.63;100.00;100650.75;5127509;27;45160;-82
2022/05/15 21:06:40;;;;;;;;;8.25;8.00;;;;;20.83;100.00;100679.06;5128021;27;45489;-81
2022/05/15 21:09:06;;;;;;;;;6.75;6.75;;;;;20.65;100.00;100692.59;5115601;27;45425;-82
2022/05/15 21:11:32;;;;;;;;;6.25;6.25;;;;;20.91;100.00;100703.06;5117386;27;45167;-81
2022/05/15 21:13:58;;;;;;;;;7.75;7.75;;;;;20.73;96.89;100708.56;5121091;27;45207;-82
2022/05/15 21:16:23;;;;;;;;;7.00;6.25;;;;;20.49;95.52;100686.50;5120041;27;45512;-82
2022/05/15 21:18:48;;;;;;;;;6.50;6.50;;;;;20.59;93.51;100714.91;5120890;27;45216;-82
2022/05/15 21:21:15;;;;;;;;;7.00;7.00;;;;;20.57;91.96;100713.13;5097901;27;45288;-82
2022/05/15 21:23:41;;;;;;;;;6.00;5.75;;;;;20.43;91.21;100707.84;5097598;27;45150;-82
2022/05/15 21:26:07;;;;;;;;;5.50;5.00;;;;;20.40;91.22;100713.22;5106503;27;47346;-82
2022/05/15 21:28:35;;;;;;;;;6.00;5.00;;;;;20.31;90.87;100732.81;5103787;27;45135;-82
2022/05/15 21:31:00;;;;;;;;;6.00;5.75;;;;;20.18;90.90;100731.13;5090612;27;45029;-83
2022/05/15 21:33:25;;;;;;;;;5.00;5.00;;;;;19.93;90.78;100690.31;5098161;27;45055;-81
2022/05/15 21:35:51;;;;;;;;;7.00;6.50;;;;;20.01;90.97;100715.19;5091071;27;46538;-82
2022/05/15 21:43:48;;;;;;;;;5.00;4.50;;;;;19.83;90.22;100707.25;5091038;28;45414;-83
2022/05/15 21:46:15;;;;;;;;;5.75;5.75;;;;;19.54;90.71;100664.66;5092321;27;45605;-82
2022/05/15 21:48:45;;;;;;;;;7.00;7.00;;;;;19.64;90.79;100686.88;5091325;27;45579;-82
2022/05/15 21:51:11;;;;;;;;;9.00;8.00;;;;;19.56;90.66;100674.44;5101659;27;45031;-82
2022/05/15 21:53:37;;;;;;;;;5.00;5.00;;;;;19.74;90.84;100713.50;5112581;27;45046;-82
2022/05/15 21:56:02;;;;;;;;;6.50;6.25;;;;;19.69;90.53;100696.63;5112434;27;45616;-82
2022/05/15 21:58:27;;;;;;;;;4.00;4.00;;;;;19.77;90.22;100718.84;5112613;27;45139;-81
2022/05/15 22:00:56;;;;;;;;;5.00;5.00;;;;;19.50;89.11;100673.56;5111993;27;45086;-82
2022/05/15 22:03:22;;;;;;;;;5.00;4.75;;;;;19.45;88.72;100648.69;5112361;27;45264;-82
2022/05/15 22:06:03;;;;;;;;;4.75;4.50;;;;;19.74;88.02;100713.50;5111971;27;45960;-82
2022/05/15 22:08:29;;;;;;;;;6.25;6.00;;;;;19.52;86.54;100672.69;5112231;27;45631;-81
2022/05/15 22:10:55;;;;;;;;;3.75;3.75;;;;;19.61;85.95;100689.56;5112352;27;45184;-82
2022/05/15 22:13:21;;;;;;;;;5.00;5.00;;;;;19.77;84.53;100715.28;5112192;27;45328;-82
2022/05/15 22:15:48;;;;;;;;;6.00;5.00;;;;;19.46;83.13;100658.50;5110386;27;47016;-82
2022/05/15 22:18:14;;;;;;;;;7.00;6.00;;;;;19.71;82.15;100691.31;5112268;27;45111;-81
2022/05/15 22:20:39;;;;;;;;;5.00;4.75;;;;;19.37;81.43;100619.41;5117391;27;45062;-82
2022/05/15 22:23:04;;;;;;;;;6.75;6.00;;;;;19.70;81.14;100668.19;5133578;27;45031;-82
2022/05/15 22:25:30;;;;;;;;;5.75;5.00;;;;;19.85;80.63;100694.78;5113765;27;46187;-82
2022/05/15 22:27:56;;;;;;;;;4.00;4.00;;;;;19.76;80.51;100674.41;5132866;27;44976;-81
2022/05/15 22:30:22;;;;;;;;;5.75;5.75;;;;;19.85;80.17;100681.44;5125454;27;44962;-81
2022/05/15 22:32:47;;;;;;;;;6.25;5.75;;;;;19.62;79.47;100640.69;5111441;27;45396;-82
2022/05/15 22:35:13;;;;;;;;;5.00;5.00;;;;;19.61;79.91;100637.13;5109037;27;45420;-82
2022/05/15 22:37:39;;;;;;;;;7.25;7.25;;;;;19.48;79.96;100628.25;5111621;27;45274;-82
2022/05/15 22:40:07;;;;;;;;;6.00;5.50;;;;;19.57;79.49;100638.00;5111687;27;45741;-82
2022/05/15 22:42:33;;;;;;;;;5.75;5.25;;;;;19.48;79.13;100622.91;5111218;27;45155;-82
2022/05/15 22:44:58;;;;;;;;;5.75;5.00;;;;;19.73;79.36;100686.84;5112093;27;45957;-81
2022/05/15 22:47:23;;;;;;;;;5.75;5.50;;;;;19.37;78.91;100627.41;5092235;27;45061;-82
2022/05/15 22:49:49;;;;;;;;;6.75;6.00;;;;;19.31;79.47;100620.31;5111533;27;45362;-82
2022/05/15 22:52:14;;;;;;;;;5.50;5.50;;;;;19.67;79.14;100692.22;5111283;27;45247;-82
2022/05/15 22:54:40;;;;;;;;;6.75;6.50;;;;;19.71;79.49;100688.66;5110904;27;45221;-82
2022/05/15 22:57:05;;;;;;;;;5.25;5.25;;;;;19.58;78.91;100666.44;5110391;27;45304;-82
2022/05/15 22:59:31;;;;;;;;;5.75;5.50;;;;;19.75;79.27;100690.38;5111580;27;45221;-83
2022/05/15 23:01:56;;;;;;;;;6.50;6.50;;;;;19.56;78.98;100666.44;5110987;27;45124;-82
2022/05/15 23:07:28;;;;;;;;;6.50;6.00;;;;;19.61;78.60;100676.25;5111357;27;45234;-82
2022/05/15 23:09:51;;;;;;;;;7.75;6.50;;;;;19.54;78.65;100676.22;5111079;27;45109;-82
2022/05/15 23:12:16;;;;;;;;;5.25;5.00;;;;;19.33;78.55;100650.50;5110787;27;45099;-81
2022/05/15 23:14:42;;;;;;;;;5.50;5.00;;;;;19.68;79.09;100705.53;5111031;27;45588;-82
2022/05/15 23:17:07;;;;;;;;;6.75;6.25;;;;;19.41;78.61;100668.25;5111046;27;45099;-81
2022/05/15 23:19:32;;;;;;;;;5.00;5.00;;;;;19.58;78.78;100693.09;5111370;27;45107;-82
2022/05/15 23:21:58;;;;;;;;;5.00;5.00;;;;;19.55;78.97;100691.31;5110676;27;45187;-83
2022/05/15 23:24:23;;;;;;;;;6.00;6.00;;;;;19.41;79.18;100660.25;5110545;27;45638;-82
2022/05/15 23:26:48;;;;;;;;;6.00;5.00;;;;;19.37;78.47;100650.50;5111281;27;45608;-82
2022/05/15 23:29:14;;;;;;;;;8.00;6.00;;;;;19.59;79.32;100714.44;5111186;27;45139;-81
2022/05/15 23:31:39;;;;;;;;;7.75;6.75;;;;;19.33;79.01;100671.84;5110318;27;45183;-81
2022/05/15 23:34:04;;;;;;;;;6.75;6.25;;;;;19.48;78.87;100699.34;5111241;27;45455;-81
2022/05/15 23:36:30;;;;;;;;;8.00;7.00;;;;;19.53;78.50;100705.56;5110728;27;45195;-82
2022/05/15 23:38:55;;;;;;;;;5.00;5.00;;;;;19.40;78.66;100680.69;5111890;27;45010;-80
2022/05/15 23:41:20;;;;;;;;;5.00;5.00;;;;;19.31;78.70;100664.75;5110529;27;45065;-82
2022/05/15 23:43:45;;;;;;;;;5.00;5.00;;;;;19.30;78.32;100670.94;5110840;27;47062;-81
2022/05/15 23:46:11;;;;;;;;;5.00;5.00;;;;;19.47;78.10;100711.78;5109927;27;44992;-81
2022/05/15 23:48:36;;;;;;;;;6.50;6.00;;;;;19.31;78.43;100691.41;5110614;27;45091;-81
2022/05/15 23:51:02;;;;;;;;;5.25;4.50;;;;;19.38;78.44;100700.25;5092249;27;45264;-81
2022/05/15 23:53:28;;;;;;;;;3.50;3.50;;;;;19.45;78.36;100704.66;5113218;27;45329;-81
2022/05/15 23:55:53;;;;;;;;;6.75;6.25;;;;;19.32;78.74;100669.19;5131135;27;45155;-81
2022/05/15 23:58:19;;;;;;;;;6.50;6.00;;;;;19.27;78.51;100654.97;5130845;27;45254;-81
